Time;durP1;ratioP1;P1;durP2;ratioP2;P2;SDS_P1;SDS_P2;PMS_P1;PMS_P2;Temp;Humidity;BMP_temperature;BMP_pressure;BME280_temperature;BME280_humidity;BME280_pressure;Samples;Min_cycle;Max_cycle;Signal;HPM_P1;HPM_P2
2021/04/14 00:00:47;;;;;;;5.60;3.05;;;4.30;99.90;;;;;;5041739;28;20235;-73
2021/04/14 00:03:19;;;;;;;5.00;2.97;;;4.30;99.90;;;;;;5043171;28;20185;-72
2021/04/14 00:05:46;;;;;;;6.07;3.10;;;4.20;99.90;;;;;;5051931;28;20217;-76
2021/04/14 00:08:15;;;;;;;7.03;3.67;;;4.20;99.90;;;;;;5043382;28;20197;-75
2021/04/14 00:10:43;;;;;;;5.47;2.70;;;4.10;99.90;;;;;;5046175;28;20626;-73
2021/04/14 00:13:17;;;;;;;5.22;4.15;;;4.00;99.90;;;;;;5054111;28;20208;-73
2021/04/14 00:15:48;;;;;;;5.68;2.80;;;3.90;99.90;;;;;;5040625;28;20721;-72
2021/04/14 00:18:15;;;;;;;6.82;4.15;;;3.90;99.90;;;;;;5050148;28;20208;-74
2021/04/14 00:20:42;;;;;;;7.15;3.42;;;3.80;99.90;;;;;;5053300;28;20727;-74
2021/04/14 00:23:09;;;;;;;7.82;4.32;;;3.80;99.90;;;;;;5052294;28;20277;-74
2021/04/14 00:25:39;;;;;;;6.55;4.35;;;3.70;99.90;;;;;;5051491;28;20216;-73
2021/04/14 00:28:06;;;;;;;5.00;3.20;;;3.70;99.90;;;;;;5052523;28;20176;-72
2021/04/14 00:30:32;;;;;;;4.65;3.40;;;3.70;99.90;;;;;;5047405;28;20223;-72
2021/04/14 00:32:59;;;;;;;8.60;3.58;;;3.60;99.90;;;;;;5054107;28;20181;-73
2021/04/14 00:35:29;;;;;;;5.07;3.60;;;3.60;99.90;;;;;;5052136;28;20211;-72
2021/04/14 00:37:57;;;;;;;8.63;3.55;;;3.60;99.90;;;;;;5051925;28;20184;-74
2021/04/14 00:40:23;;;;;;;10.88;4.57;;;3.50;99.90;;;;;;5037428;28;20200;-73
2021/04/14 00:42:50;;;;;;;9.32;3.80;;;3.50;99.90;;;;;;5053643;28;20262;-74
2021/04/14 00:45:16;;;;;;;8.07;3.90;;;3.50;99.90;;;;;;5047087;28;20197;-73
2021/04/14 00:47:43;;;;;;;4.38;3.42;;;3.50;99.90;;;;;;5053161;28;20212;-71
2021/04/14 00:50:12;;;;;;;7.75;4.57;;;3.40;99.90;;;;;;5052792;28;20180;-71
2021/04/14 00:52:39;;;;;;;4.30;3.17;;;3.20;99.90;;;;;;5050032;28;20613;-72
2021/04/14 00:55:08;;;;;;;4.70;3.67;;;3.20;99.90;;;;;;5051510;28;20204;-72
2021/04/14 00:57:35;;;;;;;6.72;3.60;;;3.20;99.90;;;;;;5051366;28;20717;-71
2021/04/14 01:00:07;;;;;;;5.20;3.50;;;3.20;99.90;;;;;;5049749;28;20209;-75
2021/04/14 01:02:34;;;;;;;5.35;4.00;;;3.20;99.90;;;;;;5052335;28;20303;-72
2021/04/14 01:05:00;;;;;;;6.03;3.70;;;3.10;99.90;;;;;;5053164;28;20712;-72
2021/04/14 01:07:26;;;;;;;3.90;3.30;;;3.00;99.90;;;;;;5051929;28;20247;-75
2021/04/14 01:09:53;;;;;;;9.90;4.30;;;3.00;99.90;;;;;;5052320;28;20196;-73
2021/04/14 01:12:19;;;;;;;6.40;3.50;;;3.00;99.90;;;;;;5050794;28;20255;-71
2021/04/14 01:14:45;;;;;;;6.60;4.43;;;3.00;99.90;;;;;;5049186;28;20216;-72
2021/04/14 01:17:12;;;;;;;8.73;4.43;;;3.10;99.90;;;;;;5034592;28;20232;-74
2021/04/14 01:19:38;;;;;;;7.13;5.38;;;3.10;99.90;;;;;;5053110;28;20297;-73
2021/04/14 01:22:05;;;;;;;7.93;4.45;;;3.10;99.90;;;;;;5050798;28;20232;-72
2021/04/14 01:24:31;;;;;;;6.30;4.50;;;3.10;99.90;;;;;;5041592;28;20204;-73
2021/04/14 01:26:58;;;;;;;13.90;5.05;;;3.20;99.90;;;;;;5043588;28;20242;-72
2021/04/14 01:29:24;;;;;;;8.60;5.50;;;3.20;99.90;;;;;;5052203;28;20195;-73
2021/04/14 01:31:50;;;;;;;4.95;4.40;;;3.20;99.90;;;;;;5050338;28;20311;-73
2021/04/14 01:34:19;;;;;;;5.45;4.28;;;3.30;99.90;;;;;;5053060;28;20193;-74
2021/04/14 01:36:45;;;;;;;8.95;4.40;;;3.30;99.90;;;;;;5050374;28;20702;-72
2021/04/14 01:39:14;;;;;;;7.20;4.55;;;3.40;99.90;;;;;;5047096;28;20627;-72
2021/04/14 01:41:41;;;;;;;7.22;4.85;;;3.50;99.90;;;;;;5030897;28;20307;-74
2021/04/14 01:44:10;;;;;;;7.43;5.32;;;3.60;99.90;;;;;;5049113;28;20189;-74
2021/04/14 01:46:42;;;;;;;6.70;4.95;;;3.50;99.90;;;;;;5048124;28;20223;-73
2021/04/14 01:49:11;;;;;;;7.88;5.18;;;3.40;99.90;;;;;;5050468;28;20201;-74
2021/04/14 01:51:38;;;;;;;7.65;4.63;;;3.40;99.90;;;;;;5050277;28;20314;-73
2021/04/14 01:54:05;;;;;;;11.48;5.63;;;3.50;99.90;;;;;;5045524;28;20652;-74
2021/04/14 01:56:32;;;;;;;9.85;5.20;;;3.60;99.90;;;;;;5047400;28;20220;-72
2021/04/14 01:58:58;;;;;;;7.60;5.03;;;3.60;99.90;;;;;;5050563;28;20210;-72
2021/04/14 02:01:25;;;;;;;4.85;4.30;;;3.50;99.90;;;;;;5049564;28;20311;-73
2021/04/14 02:03:51;;;;;;;4.78;4.15;;;3.60;99.90;;;;;;5051914;28;20259;-73
2021/04/14 02:06:18;;;;;;;5.28;3.78;;;3.60;99.90;;;;;;5051118;28;20262;-72
2021/04/14 02:08:45;;;;;;;7.30;5.35;;;3.60;99.90;;;;;;5048399;28;20193;-75
2021/04/14 02:11:14;;;;;;;7.18;4.47;;;3.60;99.90;;;;;;5050572;28;20713;-71
2021/04/14 02:13:42;;;;;;;7.10;4.30;;;3.60;99.90;;;;;;5050567;28;20474;-74
2021/04/14 02:16:13;;;;;;;9.77;4.95;;;3.60;99.90;;;;;;5049180;28;20224;-74
2021/04/14 02:18:40;;;;;;;7.50;5.43;;;3.50;99.90;;;;;;5051640;28;20208;-72
2021/04/14 02:21:07;;;;;;;5.35;3.85;;;3.40;99.90;;;;;;5033676;28;20696;-72
2021/04/14 02:23:40;;;;;;;5.30;4.20;;;3.40;99.90;;;;;;5050087;28;20216;-73
2021/04/14 02:26:10;;;;;;;9.48;4.82;;;3.20;99.90;;;;;;5049278;28;20274;-74
2021/04/14 02:28:37;;;;;;;6.75;4.63;;;3.10;99.90;;;;;;5051544;28;20204;-73
2021/04/14 02:31:04;;;;;;;7.57;4.97;;;3.10;99.90;;;;;;5046297;28;20213;-72
2021/04/14 02:33:31;;;;;;;5.90;3.85;;;3.00;99.90;;;;;;5046465;28;20597;-73
2021/04/14 02:35:57;;;;;;;6.22;4.30;;;2.90;99.90;;;;;;5050598;28;20230;-74
2021/04/14 02:38:25;;;;;;;8.15;5.03;;;2.90;99.90;;;;;;5051633;28;20226;-72
2021/04/14 02:40:52;;;;;;;5.20;4.60;;;2.90;99.90;;;;;;5046108;28;20216;-73
2021/04/14 02:43:19;;;;;;;10.20;4.55;;;2.90;99.90;;;;;;5050368;28;20224;-72
2021/04/14 02:45:46;;;;;;;7.57;4.60;;;2.90;99.90;;;;;;5029531;28;20239;-72
2021/04/14 02:48:13;;;;;;;3.92;3.45;;;2.90;99.90;;;;;;5040212;28;20200;-74
2021/04/14 02:50:39;;;;;;;8.23;4.20;;;2.80;99.90;;;;;;5040631;28;20723;-75
2021/04/14 02:53:07;;;;;;;7.32;4.75;;;2.70;99.90;;;;;;5044161;28;20211;-72
2021/04/14 02:55:34;;;;;;;8.38;4.00;;;2.70;99.90;;;;;;5049201;28;20220;-72
2021/04/14 02:58:01;;;;;;;9.23;4.60;;;2.70;99.90;;;;;;5050066;28;20210;-72
2021/04/14 03:00:28;;;;;;;8.15;4.80;;;2.70;99.90;;;;;;5041152;28;20292;-73
2021/04/14 03:02:55;;;;;;;7.57;4.20;;;2.70;99.90;;;;;;5049098;28;20291;-73
2021/04/14 03:05:28;;;;;;;4.28;3.30;;;2.70;99.90;;;;;;5042840;28;20200;-73
2021/04/14 03:07:55;;;;;;;7.63;4.50;;;2.50;99.90;;;;;;5051199;28;20214;-75
2021/04/14 03:10:22;;;;;;;6.85;3.90;;;2.40;99.90;;;;;;5048457;28;20291;-73
2021/04/14 03:12:50;;;;;;;8.00;4.60;;;2.40;99.90;;;;;;5051430;28;20222;-73
2021/04/14 03:15:20;;;;;;;5.78;4.35;;;2.40;99.90;;;;;;5043284;28;20339;-74
2021/04/14 03:17:47;;;;;;;6.40;4.22;;;2.20;99.90;;;;;;5037733;28;20204;-72
2021/04/14 03:20:15;;;;;;;11.45;3.83;;;2.10;99.90;;;;;;5049538;28;20705;-74
2021/04/14 03:22:41;;;;;;;5.57;3.70;;;2.20;99.90;;;;;;5051067;28;20204;-72
2021/04/14 03:25:08;;;;;;;4.63;3.85;;;2.10;99.90;;;;;;5039058;28;20777;-71
2021/04/14 03:27:35;;;;;;;5.68;4.28;;;2.00;99.90;;;;;;5047978;28;20212;-74
2021/04/14 03:30:03;;;;;;;6.40;4.75;;;2.00;99.90;;;;;;5042662;28;20189;-72
2021/04/14 03:32:29;;;;;;;6.70;4.65;;;1.90;99.90;;;;;;5043696;28;20229;-73
2021/04/14 03:34:56;;;;;;;5.78;4.57;;;1.80;99.90;;;;;;5051158;28;20205;-72
2021/04/14 03:37:22;;;;;;;4.80;4.40;;;1.80;99.90;;;;;;5048623;28;20228;-73
2021/04/14 03:39:49;;;;;;;5.22;4.53;;;1.80;99.90;;;;;;5035965;28;20205;-73
2021/04/14 03:42:15;;;;;;;7.70;4.22;;;1.80;99.90;;;;;;5043669;28;20220;-74
2021/04/14 03:44:41;;;;;;;6.68;4.93;;;1.80;99.90;;;;;;5046767;28;20220;-74
2021/04/14 03:47:08;;;;;;;8.20;4.57;;;1.80;99.90;;;;;;5035176;28;20311;-72
2021/04/14 03:49:34;;;;;;;7.18;5.22;;;1.90;99.90;;;;;;5051085;28;20218;-74
2021/04/14 03:52:01;;;;;;;7.13;4.93;;;1.90;99.90;;;;;;5050189;28;20225;-72
2021/04/14 03:54:28;;;;;;;5.88;4.47;;;1.90;99.90;;;;;;5045589;28;20193;-73
2021/04/14 03:56:55;;;;;;;5.57;4.55;;;1.90;99.90;;;;;;5039761;28;20209;-72
2021/04/14 03:59:21;;;;;;;10.15;5.85;;;1.80;99.90;;;;;;5052692;28;20217;-72
2021/04/14 04:01:47;;;;;;;9.20;5.03;;;1.80;99.90;;;;;;5048016;28;20304;-72
2021/04/14 04:04:14;;;;;;;13.98;5.28;;;1.70;99.90;;;;;;5054735;28;20200;-72
2021/04/14 04:06:40;;;;;;;9.48;5.18;;;1.70;99.90;;;;;;5052658;28;20655;-74
2021/04/14 04:09:07;;;;;;;10.80;5.32;;;1.80;99.90;;;;;;5051591;28;20300;-72
2021/04/14 04:11:34;;;;;;;11.77;5.68;;;1.80;99.90;;;;;;5052390;28;20220;-74
2021/04/14 04:14:00;;;;;;;6.88;5.25;;;1.70;99.90;;;;;;5052652;28;20251;-74
2021/04/14 04:16:27;;;;;;;6.03;5.45;;;1.70;99.90;;;;;;5044263;28;20228;-72
2021/04/14 04:18:55;;;;;;;9.55;6.00;;;1.70;99.90;;;;;;5054188;28;20208;-73
2021/04/14 04:21:22;;;;;;;12.82;5.43;;;1.60;99.90;;;;;;5053291;28;20263;-73
2021/04/14 04:23:50;;;;;;;10.27;5.03;;;1.60;99.90;;;;;;5048425;28;20228;-74
2021/04/14 04:26:17;;;;;;;9.20;6.10;;;1.60;99.90;;;;;;5040097;28;20682;-75
2021/04/14 04:28:44;;;;;;;8.10;5.30;;;1.50;99.90;;;;;;5052315;28;20787;-72
2021/04/14 04:31:11;;;;;;;7.43;5.15;;;1.50;99.90;;;;;;5037320;28;20228;-73
2021/04/14 04:33:40;;;;;;;7.45;5.15;;;1.60;99.90;;;;;;5035423;28;20271;-74
2021/04/14 04:36:07;;;;;;;8.90;5.53;;;1.50;99.90;;;;;;5051589;28;20708;-73
2021/04/14 04:38:34;;;;;;;9.02;5.40;;;1.60;99.90;;;;;;5027598;28;20209;-73
2021/04/14 04:41:03;;;;;;;8.35;4.57;;;1.70;99.90;;;;;;5052869;28;20235;-75
2021/04/14 04:43:30;;;;;;;7.35;4.72;;;1.70;99.90;;;;;;5053369;28;20634;-73
2021/04/14 04:45:56;;;;;;;9.70;6.10;;;1.70;99.90;;;;;;5048279;28;20225;-72
2021/04/14 04:48:24;;;;;;;9.50;5.78;;;1.70;99.90;;;;;;5044037;28;20288;-72
2021/04/14 04:50:50;;;;;;;7.43;5.38;;;1.60;99.90;;;;;;5053233;28;20320;-72
2021/04/14 04:53:21;;;;;;;8.30;6.55;;;1.60;99.90;;;;;;5051488;28;20574;-74
2021/04/14 04:55:49;;;;;;;9.95;5.38;;;1.60;99.90;;;;;;5052570;28;20216;-74
2021/04/14 04:58:16;;;;;;;8.50;5.57;;;1.60;99.90;;;;;;5053279;28;20200;-75
2021/04/14 05:00:43;;;;;;;6.22;5.40;;;1.70;99.90;;;;;;5050054;28;20216;-74
2021/04/14 05:03:12;;;;;;;6.15;5.15;;;1.70;99.90;;;;;;5053217;28;20197;-72
2021/04/14 05:05:41;;;;;;;8.63;6.00;;;1.80;99.90;;;;;;5050732;28;20224;-73
2021/04/14 05:08:10;;;;;;;7.88;5.63;;;1.90;99.90;;;;;;5052775;28;20261;-73
2021/04/14 05:10:37;;;;;;;12.38;6.18;;;2.00;99.90;;;;;;5046479;28;20216;-77
2021/04/14 05:13:05;;;;;;;7.90;6.13;;;2.00;99.90;;;;;;5052676;28;20219;-75
2021/04/14 05:15:34;;;;;;;8.65;5.70;;;2.10;99.90;;;;;;5042861;28;20216;-73
2021/04/14 05:18:01;;;;;;;7.45;5.90;;;2.20;99.90;;;;;;5037815;28;20665;-74
2021/04/14 05:20:28;;;;;;;6.82;5.82;;;2.20;99.90;;;;;;5050372;28;20312;-74
2021/04/14 05:22:55;;;;;;;7.20;5.90;;;2.20;99.90;;;;;;5050566;28;20686;-74
2021/04/14 05:25:24;;;;;;;9.65;6.13;;;2.20;99.90;;;;;;5033625;28;20299;-73
2021/04/14 05:27:53;;;;;;;10.60;6.00;;;2.20;99.90;;;;;;5052037;28;20583;-74
2021/04/14 05:30:20;;;;;;;8.75;7.85;;;2.30;99.90;;;;;;5044784;28;20185;-75
2021/04/14 05:32:48;;;;;;;8.43;6.50;;;2.40;99.90;;;;;;5045558;28;20196;-74
2021/04/14 05:35:14;;;;;;;8.50;6.07;;;2.40;99.90;;;;;;5052254;28;20200;-74
2021/04/14 05:37:41;;;;;;;11.05;6.15;;;2.50;99.90;;;;;;5046376;28;20188;-76
2021/04/14 05:40:08;;;;;;;10.07;6.00;;;2.60;99.90;;;;;;5067457;28;20197;-73
2021/04/14 05:42:43;;;;;;;10.30;7.45;;;2.60;99.90;;;;;;5051118;28;20292;-74
2021/04/14 05:45:13;;;;;;;11.88;6.65;;;2.70;99.90;;;;;;5044408;28;20251;-75
2021/04/14 05:47:40;;;;;;;9.38;7.05;;;2.70;99.90;;;;;;5048401;28;20208;-74
2021/04/14 05:50:08;;;;;;;13.27;7.20;;;2.80;99.90;;;;;;5050682;28;20242;-73
2021/04/14 05:52:35;;;;;;;13.27;6.57;;;3.00;99.90;;;;;;5049390;28;20693;-74
2021/04/14 05:55:01;;;;;;;12.82;6.80;;;3.10;99.90;;;;;;5036976;28;20485;-75
2021/04/14 05:57:28;;;;;;;10.18;7.40;;;3.10;99.90;;;;;;5046733;28;20218;-76
2021/04/14 05:59:54;;;;;;;10.52;6.50;;;3.10;99.90;;;;;;5046440;28;20245;-74
2021/04/14 06:02:20;;;;;;;13.45;8.55;;;3.10;99.90;;;;;;5051359;28;20240;-73
2021/04/14 06:04:47;;;;;;;8.50;6.22;;;3.10;99.90;;;;;;5051797;28;20608;-73
2021/04/14 06:07:13;;;;;;;9.38;6.95;;;3.20;99.90;;;;;;5050399;28;20219;-74
2021/04/14 06:09:42;;;;;;;12.43;8.07;;;3.30;99.90;;;;;;5049339;28;20551;-74
2021/04/14 06:12:09;;;;;;;17.02;7.45;;;3.40;99.90;;;;;;5050052;28;20248;-72
2021/04/14 06:14:35;;;;;;;11.00;6.57;;;3.50;99.90;;;;;;5049274;28;20338;-74
2021/04/14 06:17:03;;;;;;;14.38;7.43;;;3.50;99.90;;;;;;5048504;28;20217;-74
2021/04/14 06:19:29;;;;;;;10.32;6.95;;;3.60;99.90;;;;;;5049720;28;20251;-71
2021/04/14 06:21:56;;;;;;;12.57;7.13;;;3.80;99.90;;;;;;5049416;28;20299;-73
2021/04/14 06:24:24;;;;;;;16.35;7.93;;;3.90;99.90;;;;;;5035323;28;20216;-72
2021/04/14 06:26:54;;;;;;;12.20;6.78;;;4.00;99.90;;;;;;5053242;28;20215;-73
2021/04/14 06:29:20;;;;;;;9.40;6.78;;;4.00;99.90;;;;;;5050123;28;20243;-72
2021/04/14 06:31:47;;;;;;;9.50;6.90;;;4.10;99.90;;;;;;5045354;28;20212;-73
2021/04/14 06:34:20;;;;;;;10.35;7.35;;;4.30;99.90;;;;;;5051271;28;20208;-72
2021/04/14 06:36:48;;;;;;;12.05;7.65;;;4.60;99.90;;;;;;5048814;28;20216;-72
2021/04/14 06:39:17;;;;;;;10.45;6.20;;;4.70;99.90;;;;;;5046224;28;20626;-72
2021/04/14 06:43:03;;;;;;;9.38;6.68;;;5.00;99.90;;;;;;5046703;28;20224;-72
2021/04/14 06:45:43;;;;;;;9.55;7.38;;;5.40;99.90;;;;;;5000230;28;20222;-74
2021/04/14 06:48:51;;;;;;;11.43;6.20;;;5.50;99.90;;;;;;4990333;28;20178;-73
2021/04/14 06:51:50;;;;;;;8.70;5.63;;;5.70;99.90;;;;;;5023611;28;20706;-72
2021/04/14 06:54:30;;;;;;;9.27;6.35;;;5.60;99.90;;;;;;5044031;28;20421;-72
2021/04/14 06:57:05;;;;;;;9.20;5.65;;;5.80;99.90;;;;;;5045834;28;20224;-74
2021/04/14 06:59:34;;;;;;;6.68;5.85;;;5.80;99.90;;;;;;5049126;28;20207;-74
2021/04/14 07:02:13;;;;;;;8.95;7.00;;;5.90;99.90;;;;;;5025810;28;20588;-75
2021/04/14 07:04:45;;;;;;;9.40;6.43;;;6.20;99.90;;;;;;5048917;28;20295;-72
2021/04/14 07:07:24;;;;;;;9.68;6.50;;;6.30;99.90;;;;;;5047615;28;20227;-73
2021/04/14 07:09:53;;;;;;;14.68;7.78;;;6.30;99.90;;;;;;5050207;28;20210;-72
2021/04/14 07:12:22;;;;;;;9.80;8.02;;;6.60;99.90;;;;;;5049452;28;20319;-73
2021/04/14 07:14:53;;;;;;;11.57;6.28;;;6.60;99.90;;;;;;5049183;28;20245;-75
2021/04/14 07:17:36;;;;;;;7.35;5.90;;;6.60;99.90;;;;;;5050063;28;20212;-74
2021/04/14 07:20:26;;;;;;;7.47;5.43;;;6.80;99.90;;;;;;5050948;28;20213;-74
2021/04/14 07:23:04;;;;;;;6.32;4.03;;;7.00;99.90;;;;;;5049819;28;20590;-75
2021/04/14 07:25:51;;;;;;;6.05;4.20;;;7.00;99.90;;;;;;5043662;28;20319;-73
2021/04/14 07:28:24;;;;;;;6.95;4.05;;;7.10;99.90;;;;;;5051100;28;20181;-74
2021/04/14 07:30:54;;;;;;;7.95;5.07;;;7.20;99.90;;;;;;5038279;28;20225;-74
2021/04/14 07:33:27;;;;;;;6.53;5.80;;;7.20;99.90;;;;;;5044608;28;20654;-74
2021/04/14 07:36:02;;;;;;;6.70;4.95;;;7.10;99.90;;;;;;5053901;28;20299;-75
2021/04/14 07:39:04;;;;;;;6.20;4.70;;;7.30;99.90;;;;;;5050384;28;20241;-75
2021/04/14 07:41:56;;;;;;;6.53;4.63;;;7.30;96.50;;;;;;5050861;28;20231;-73
2021/04/14 07:44:31;;;;;;;7.20;4.80;;;7.50;96.40;;;;;;5053451;28;20254;-73
2021/04/14 07:46:57;;;;;;;4.80;4.03;;;7.70;97.20;;;;;;5053893;28;20219;-76
2021/04/14 07:49:29;;;;;;;5.32;4.10;;;7.90;96.90;;;;;;5052780;28;20315;-74
2021/04/14 07:51:55;;;;;;;4.65;4.22;;;7.90;94.20;;;;;;5054213;28;20219;-73
2021/04/14 07:54:22;;;;;;;7.65;4.65;;;7.90;93.50;;;;;;5053481;28;20295;-76
2021/04/14 07:56:55;;;;;;;6.65;5.05;;;8.00;90.00;;;;;;5068372;28;20691;-72
2021/04/14 07:59:31;;;;;;;5.78;4.57;;;8.30;84.10;;;;;;5053409;28;20619;-74
2021/04/14 08:01:58;;;;;;;6.55;5.30;;;8.30;85.80;;;;;;5041219;28;20213;-73
2021/04/14 08:04:41;;;;;;;6.53;5.10;;;8.40;84.70;;;;;;5052894;28;20218;-73
2021/04/14 08:07:10;;;;;;;9.30;6.15;;;8.50;78.80;;;;;;5053443;28;20568;-74
2021/04/14 08:09:46;;;;;;;6.23;4.80;;;8.40;73.20;;;;;;5047309;28;20558;-74
2021/04/14 08:12:30;;;;;;;7.37;5.97;;;8.40;76.90;;;;;;5042211;28;20474;-73
2021/04/14 08:15:16;;;;;;;8.30;5.47;;;8.50;81.80;;;;;;5048580;28;20463;-73
2021/04/14 08:17:45;;;;;;;8.47;4.70;;;8.80;75.20;;;;;;5051836;28;20944;-73
2021/04/14 08:20:30;;;;;;;6.23;5.23;;;9.00;77.10;;;;;;5053312;28;20535;-75
2021/04/14 08:23:20;;;;;;;7.43;5.57;;;9.80;77.10;;;;;;5052872;28;20877;-73
2021/04/14 08:25:55;;;;;;;8.53;6.50;;;10.30;76.40;;;;;;5047866;28;20463;-72
2021/04/14 08:28:40;;;;;;;8.27;7.10;;;10.50;75.70;;;;;;5034036;28;20423;-72
2021/04/14 08:31:23;;;;;;;7.47;6.80;;;10.70;76.60;;;;;;5047364;28;20824;-72
2021/04/14 08:33:52;;;;;;;8.50;6.50;;;11.00;76.10;;;;;;5052812;28;20913;-73
2021/04/14 08:36:36;;;;;;;7.10;6.40;;;11.30;74.90;;;;;;5035325;28;20992;-72
2021/04/14 08:39:16;;;;;;;10.60;6.40;;;11.50;72.60;;;;;;5041362;28;20955;-73
2021/04/14 08:41:42;;;;;;;17.53;7.20;;;11.50;72.30;;;;;;5051924;28;20468;-74
2021/04/14 08:44:16;;;;;;;13.77;6.70;;;11.60;75.20;;;;;;5051781;28;20439;-73
2021/04/14 08:46:43;;;;;;;14.53;7.87;;;11.80;75.40;;;;;;5047383;28;20466;-74
2021/04/14 08:49:24;;;;;;;11.77;7.03;;;11.70;73.30;;;;;;5051780;28;20499;-73
2021/04/14 08:51:57;;;;;;;12.20;6.97;;;11.60;72.80;;;;;;5052159;28;20487;-73
2021/04/14 08:54:31;;;;;;;8.50;6.20;;;11.60;72.90;;;;;;5045399;28;20435;-73
2021/04/14 08:56:57;;;;;;;10.30;6.17;;;11.90;69.70;;;;;;5045338;28;20569;-72
2021/04/14 08:59:26;;;;;;;9.20;7.07;;;12.00;69.50;;;;;;5052624;28;20527;-73
2021/04/14 09:01:53;;;;;;;9.43;6.13;;;12.00;71.40;;;;;;5043382;28;20538;-74
2021/04/14 09:04:24;;;;;;;9.27;7.57;;;12.00;71.10;;;;;;5052595;28;20472;-73
2021/04/14 09:06:53;;;;;;;9.63;6.90;;;12.10;69.20;;;;;;5051177;28;20479;-73
2021/04/14 09:09:23;;;;;;;7.80;7.00;;;12.20;70.70;;;;;;5049816;28;20456;-72
2021/04/14 09:12:04;;;;;;;8.23;7.13;;;12.20;66.00;;;;;;5050728;28;20467;-72
2021/04/14 09:14:33;;;;;;;7.77;7.07;;;12.10;65.90;;;;;;5033983;28;20442;-73
2021/04/14 09:17:02;;;;;;;12.23;7.87;;;11.80;62.90;;;;;;5048049;28;20466;-73
2021/04/14 09:19:44;;;;;;;8.60;7.27;;;11.60;62.90;;;;;;5051940;28;20513;-73
2021/04/14 09:22:27;;;;;;;7.63;6.47;;;11.30;64.10;;;;;;5052587;28;20474;-72
2021/04/14 09:25:02;;;;;;;8.80;7.10;;;11.40;67.60;;;;;;5044148;28;20468;-73
2021/04/14 09:27:36;;;;;;;8.20;5.90;;;11.40;64.60;;;;;;5033985;28;20453;-73
2021/04/14 09:30:14;;;;;;;10.17;7.10;;;11.30;71.90;;;;;;5046050;28;20604;-74
2021/04/14 09:32:48;;;;;;;8.07;6.20;;;11.00;72.90;;;;;;5031749;28;20443;-73
2021/04/14 09:35:22;;;;;;;9.27;6.50;;;10.90;74.70;;;;;;5032158;28;20542;-73
2021/04/14 09:38:04;;;;;;;7.57;6.70;;;10.80;67.10;;;;;;5031481;28;20428;-73
2021/04/14 09:40:33;;;;;;;11.90;7.30;;;10.80;67.80;;;;;;5047335;28;20514;-74
2021/04/14 09:43:00;;;;;;;9.73;6.97;;;10.60;72.30;;;;;;5034346;28;20436;-73
2021/04/14 09:45:27;;;;;;;11.60;7.23;;;10.70;78.50;;;;;;5039129;28;20463;-74
2021/04/14 09:47:55;;;;;;;9.83;7.67;;;10.60;78.40;;;;;;5051241;28;20461;-72
2021/04/14 09:50:28;;;;;;;9.90;8.40;;;10.60;76.20;;;;;;5039888;28;20459;-73
2021/04/14 09:53:15;;;;;;;7.93;7.13;;;10.50;80.60;;;;;;5050290;28;20861;-73
2021/04/14 09:55:46;;;;;;;9.40;7.93;;;10.40;81.50;;;;;;5036092;28;20503;-73
2021/04/14 09:58:20;;;;;;;8.90;8.00;;;10.30;78.70;;;;;;5031321;28;20420;-71
2021/04/14 10:00:51;;;;;;;10.53;8.13;;;10.40;79.70;;;;;;5038008;28;20467;-73
2021/04/14 10:03:26;;;;;;;14.67;8.07;;;10.40;82.80;;;;;;5048128;28;20446;-73
2021/04/14 10:05:55;;;;;;;9.90;7.97;;;10.50;74.80;;;;;;5042761;28;20476;-73
2021/04/14 10:08:22;;;;;;;10.00;7.53;;;10.50;76.70;;;;;;5048130;28;20450;-74
2021/04/14 10:10:50;;;;;;;9.77;7.53;;;10.30;76.30;;;;;;5042634;28;20470;-73
2021/04/14 10:13:18;;;;;;;15.23;8.63;;;10.20;82.20;;;;;;5051753;28;20488;-74
2021/04/14 10:15:49;;;;;;;7.60;6.63;;;10.40;75.10;;;;;;5038155;28;20494;-73
2021/04/14 10:18:20;;;;;;;8.77;6.67;;;10.40;74.50;;;;;;5047340;28;20416;-73
2021/04/14 10:20:47;;;;;;;12.80;6.90;;;10.40;73.20;;;;;;5044138;28;20520;-73
2021/04/14 10:23:19;;;;;;;10.00;6.13;;;10.40;74.60;;;;;;5065299;28;20526;-74
2021/04/14 10:25:46;;;;;;;8.30;6.30;;;10.60;77.40;;;;;;5049694;28;20473;-73
2021/04/14 10:28:20;;;;;;;7.80;7.00;;;10.80;79.40;;;;;;5049795;28;20522;-73
2021/04/14 10:31:09;;;;;;;9.93;6.87;;;10.80;74.40;;;;;;5049216;28;20984;-75
2021/04/14 10:33:38;;;;;;;9.20;6.30;;;10.80;72.80;;;;;;5051774;28;20896;-73
2021/04/14 10:36:31;;;;;;;13.10;7.83;;;10.60;75.30;;;;;;5048733;28;20474;-73
2021/04/14 10:39:16;;;;;;;9.00;6.33;;;10.60;79.00;;;;;;5050397;28;20438;-73
2021/04/14 10:41:45;;;;;;;8.37;7.10;;;10.30;75.40;;;;;;5039039;28;21043;-74
2021/04/14 10:44:25;;;;;;;8.97;7.97;;;10.00;70.30;;;;;;5050174;28;20434;-73
2021/04/14 10:47:05;;;;;;;8.87;7.97;;;9.80;76.60;;;;;;5035506;28;20473;-73
2021/04/14 10:49:36;;;;;;;12.50;7.97;;;9.60;75.30;;;;;;5050152;28;20495;-72
2021/04/14 10:52:28;;;;;;;11.70;9.10;;;9.30;75.20;;;;;;5048915;28;20284;-73
2021/04/14 10:55:00;;;;;;;13.40;9.40;;;9.00;79.40;;;;;;5049215;28;20645;-73
2021/04/14 10:57:31;;;;;;;9.73;8.75;;;9.10;83.60;;;;;;5050864;28;20487;-72
2021/04/14 11:00:08;;;;;;;9.70;8.63;;;9.20;85.10;;;;;;5046931;28;20198;-74
2021/04/14 11:02:42;;;;;;;11.15;8.88;;;9.40;80.30;;;;;;5040814;28;20213;-73
2021/04/14 11:05:13;;;;;;;11.63;10.02;;;9.60;77.40;;;;;;5049383;28;20289;-73
2021/04/14 11:07:41;;;;;;;11.60;9.63;;;9.60;77.30;;;;;;5050555;28;20236;-72
2021/04/14 11:10:11;;;;;;;16.08;9.30;;;9.70;81.70;;;;;;5052222;28;20194;-73
2021/04/14 11:12:44;;;;;;;11.82;10.63;;;9.60;81.10;;;;;;5053007;28;20246;-74
2021/04/14 11:15:19;;;;;;;11.10;8.98;;;9.50;79.90;;;;;;5048095;28;20211;-74
2021/04/14 11:17:57;;;;;;;10.90;9.45;;;9.50;87.20;;;;;;5069366;28;20248;-73
2021/04/14 11:20:36;;;;;;;10.60;9.50;;;9.60;86.70;;;;;;5053192;28;20237;-73
2021/04/14 11:23:03;;;;;;;12.10;7.88;;;9.70;76.20;;;;;;5054516;28;20232;-73
2021/04/14 11:25:32;;;;;;;13.10;9.57;;;9.60;72.90;;;;;;5035191;28;20612;-73
2021/04/14 11:28:08;;;;;;;13.27;9.18;;;9.60;66.80;;;;;;5054027;28;20236;-73
2021/04/14 11:30:56;;;;;;;10.63;8.18;;;9.50;68.70;;;;;;5051485;28;20299;-73
2021/04/14 11:33:36;;;;;;;9.38;8.30;;;9.50;69.50;;;;;;5048398;28;20257;-73
2021/04/14 11:36:05;;;;;;;11.13;8.57;;;9.50;68.60;;;;;;5038642;28;20252;-73
2021/04/14 11:38:39;;;;;;;10.67;9.20;;;9.60;69.20;;;;;;5049101;28;20628;-74
2021/04/14 11:41:29;;;;;;;9.73;8.02;;;9.70;65.60;;;;;;5049678;28;20999;-73
2021/04/14 11:43:56;;;;;;;13.50;8.27;;;9.80;64.40;;;;;;5052147;28;20221;-72
2021/04/14 11:46:36;;;;;;;11.55;9.25;;;9.90;64.00;;;;;;5050118;28;20502;-74
2021/04/14 11:49:08;;;;;;;11.73;8.17;;;10.10;67.50;;;;;;5053171;28;20194;-73
2021/04/14 11:51:42;;;;;;;12.43;9.53;;;10.20;66.90;;;;;;5052843;28;20561;-73
2021/04/14 11:54:31;;;;;;;12.67;9.87;;;10.20;68.70;;;;;;5043401;28;20541;-73
2021/04/14 11:57:04;;;;;;;13.00;8.77;;;10.20;64.70;;;;;;5033776;28;20464;-73
2021/04/14 11:59:35;;;;;;;15.03;10.40;;;10.40;62.60;;;;;;5049809;28;20459;-74
2021/04/14 12:02:11;;;;;;;11.83;10.20;;;10.40;67.80;;;;;;5032630;28;20479;-73
2021/04/14 12:04:40;;;;;;;11.60;10.07;;;10.50;68.50;;;;;;5035171;28;20434;-74
2021/04/14 12:07:07;;;;;;;15.43;9.40;;;10.60;67.00;;;;;;5033854;28;20463;-74
2021/04/14 12:09:33;;;;;;;11.13;8.47;;;10.60;69.30;;;;;;5034093;28;20965;-75
2021/04/14 12:12:01;;;;;;;9.90;8.63;;;10.70;64.10;;;;;;5032366;28;20872;-73
2021/04/14 12:14:29;;;;;;;13.70;10.00;;;10.70;63.20;;;;;;5033171;28;20456;-74
2021/04/14 12:16:55;;;;;;;11.90;8.63;;;10.70;58.90;;;;;;5053246;28;20466;-73
2021/04/14 12:19:22;;;;;;;10.00;8.70;;;10.60;62.40;;;;;;5069736;28;20984;-74
2021/04/14 12:21:50;;;;;;;16.73;10.37;;;10.60;64.70;;;;;;5052643;28;20465;-73
2021/04/14 12:24:17;;;;;;;11.83;8.90;;;10.70;67.30;;;;;;5053559;28;20419;-74
2021/04/14 12:26:44;;;;;;;10.30;8.70;;;10.80;65.60;;;;;;5048800;28;20495;-74
2021/04/14 12:29:11;;;;;;;11.90;8.60;;;10.90;65.00;;;;;;5032891;28;20962;-74
2021/04/14 12:31:37;;;;;;;11.13;8.63;;;10.90;60.30;;;;;;5048633;28;20498;-74
2021/04/14 12:34:06;;;;;;;11.53;9.97;;;10.60;59.20;;;;;;5034148;28;20443;-74
2021/04/14 12:36:33;;;;;;;14.30;9.67;;;10.50;59.30;;;;;;5033485;28;20868;-74
2021/04/14 12:39:00;;;;;;;10.53;9.03;;;10.40;64.00;;;;;;5033759;28;20464;-73
2021/04/14 12:41:27;;;;;;;11.73;10.30;;;10.30;68.40;;;;;;5032125;28;20478;-73
2021/04/14 12:43:54;;;;;;;10.93;9.57;;;10.20;70.60;;;;;;5034565;28;20455;-74
2021/04/14 12:46:20;;;;;;;11.43;10.40;;;10.00;71.70;;;;;;5033943;28;20475;-74
2021/04/14 12:48:50;;;;;;;11.37;10.00;;;10.00;73.30;;;;;;5033560;28;20448;-73
2021/04/14 12:51:31;;;;;;;11.93;10.23;;;9.90;77.30;;;;;;5033529;28;20456;-73
2021/04/14 12:54:14;;;;;;;10.87;9.77;;;9.70;80.20;;;;;;5038650;28;20470;-75
2021/04/14 12:56:54;;;;;;;12.03;10.60;;;9.60;76.70;;;;;;5048311;28;20984;-73
2021/04/14 12:59:31;;;;;;;12.47;9.77;;;9.50;76.20;;;;;;5048691;28;20821;-73
2021/04/14 13:02:56;;;;;;;12.30;10.30;;;9.40;78.00;;;;;;5032043;28;20492;-73
2021/04/14 13:05:52;;;;;;;18.10;10.18;;;9.40;73.70;;;;;;5009684;28;20455;-74
2021/04/14 13:08:36;;;;;;;12.48;10.20;;;9.50;76.20;;;;;;5033407;28;20228;-74
2021/04/14 13:11:27;;;;;;;14.07;10.83;;;9.50;75.80;;;;;;5048112;28;20227;-75